Time;durP1;ratioP1;P1;durP2;ratioP2;P2;SDS_P1;SDS_P2;PMS_P1;PMS_P2;Temp;Humidity;BMP_temperature;BMP_pressure;BME280_temperature;BME280_humidity;BME280_pressure;Samples;Min_cycle;Max_cycle;Signal;HPM_P1;HPM_P2
2024/01/18 00:00:13;;;;;;;50.08;42.45;;;;;;;6.35;100.00;93867.06;5089715;28;20480;-69
2024/01/18 00:02:39;;;;;;;45.38;36.80;;;;;;;6.35;100.00;93868.88;5082000;28;20489;-69
2024/01/18 00:05:06;;;;;;;40.65;33.15;;;;;;;6.34;100.00;93867.25;5090837;28;20169;-69
2024/01/18 00:07:31;;;;;;;68.35;44.45;;;;;;;6.32;100.00;93871.81;5081353;28;20154;-69
2024/01/18 00:09:57;;;;;;;35.08;27.13;;;;;;;6.31;100.00;93863.13;5093206;28;20504;-69
2024/01/18 00:12:22;;;;;;;54.50;41.47;;;;;;;6.33;100.00;93863.00;5099965;28;20024;-69
2024/01/18 00:14:47;;;;;;;118.40;89.10;;;;;;;6.30;100.00;93854.50;5090657;28;20020;-69
2024/01/18 00:17:13;;;;;;;32.25;23.77;;;;;;;6.27;100.00;93852.19;5079182;28;20053;-69
2024/01/18 00:19:38;;;;;;;22.85;19.20;;;;;;;6.26;100.00;93841.91;5094538;28;20032;-69
2024/01/18 00:22:03;;;;;;;20.60;18.50;;;;;;;6.22;100.00;93838.78;5076973;28;20072;-69
2024/01/18 00:24:29;;;;;;;22.63;19.17;;;;;;;6.17;100.00;93830.63;5088888;28;20047;-69
2024/01/18 00:26:54;;;;;;;19.63;17.52;;;;;;;6.16;100.00;93842.06;5075913;28;20020;-69
2024/01/18 00:29:19;;;;;;;20.63;18.42;;;;;;;6.17;100.00;93830.63;5087488;28;20035;-69
2024/01/18 00:31:45;;;;;;;48.08;38.10;;;;;;;6.12;100.00;93819.84;5090649;28;20059;-69
2024/01/18 00:34:10;;;;;;;56.08;43.17;;;;;;;6.10;100.00;93825.22;5082987;28;20048;-69
2024/01/18 00:36:36;;;;;;;45.67;36.75;;;;;;;6.12;100.00;93823.25;5086079;28;20032;-68
2024/01/18 00:39:08;;;;;;;19.85;15.75;;;;;;;6.12;100.00;93818.03;5090487;28;20128;-69
2024/01/18 00:41:34;;;;;;;8.80;7.95;;;;;;;6.17;100.00;93814.94;5089358;28;20028;-68
2024/01/18 00:43:59;;;;;;;15.52;10.30;;;;;;;6.11;100.00;93815.59;5091361;28;20032;-69
2024/01/18 00:46:24;;;;;;;13.15;9.02;;;;;;;6.07;100.00;93798.56;5094345;28;20039;-68
2024/01/18 00:48:50;;;;;;;11.85;9.27;;;;;;;6.01;100.00;93785.19;5083101;28;20036;-69
2024/01/18 00:51:15;;;;;;;17.23;15.50;;;;;;;5.97;100.00;93785.66;5079660;28;20065;-69
2024/01/18 00:53:41;;;;;;;13.25;11.95;;;;;;;5.96;100.00;93792.66;5083199;28;20021;-69
2024/01/18 00:56:09;;;;;;;14.40;12.95;;;;;;;5.95;100.00;93783.19;5088542;28;20032;-69
2024/01/18 00:58:36;;;;;;;61.22;55.20;;;;;;;5.93;100.00;93776.47;5081031;28;20025;-69
2024/01/18 01:01:02;;;;;;;46.28;41.80;;;;;;;5.95;100.00;93787.59;5092065;28;20057;-69
2024/01/18 01:03:27;;;;;;;42.38;38.33;;;;;;;5.92;100.00;93780.91;5092732;28;20036;-69
2024/01/18 01:05:52;;;;;;;22.08;20.08;;;;;;;5.87;100.00;93786.59;5089838;28;20020;-69
2024/01/18 01:08:18;;;;;;;17.33;15.63;;;;;;;5.88;100.00;93784.81;5096188;28;20674;-70
2024/01/18 01:10:43;;;;;;;12.38;11.20;;;;;;;5.87;100.00;93784.00;5104757;28;20034;-69
2024/01/18 01:13:09;;;;;;;20.67;18.75;;;;;;;5.89;100.00;93773.41;5095515;28;20036;-70
2024/01/18 01:15:35;;;;;;;10.32;9.50;;;;;;;5.88;100.00;93780.41;5084404;28;20512;-70
2024/01/18 01:18:00;;;;;;;11.65;10.55;;;;;;;5.86;100.00;93781.56;5088678;28;20043;-69
2024/01/18 01:20:25;;;;;;;13.38;11.30;;;;;;;5.84;100.00;93780.88;5098103;28;20502;-69
2024/01/18 01:22:51;;;;;;;9.05;8.25;;;;;;;5.85;100.00;93782.50;5090376;28;20246;-69
2024/01/18 01:25:16;;;;;;;9.13;8.35;;;;;;;5.83;100.00;93794.91;5084378;28;20016;-70
2024/01/18 01:27:41;;;;;;;9.98;9.18;;;;;;;5.80;100.00;93797.84;5087267;28;20028;-70
2024/01/18 01:30:08;;;;;;;9.77;8.77;;;;;;;5.87;100.00;93798.84;5090583;28;20028;-69
2024/01/18 01:32:33;;;;;;;8.63;7.90;;;;;;;5.87;100.00;93801.47;5097088;28;20748;-69
2024/01/18 01:34:59;;;;;;;10.15;8.45;;;;;;;5.79;100.00;93797.03;5085664;28;20055;-69
2024/01/18 01:37:24;;;;;;;14.40;12.95;;;;;;;5.81;100.00;93797.69;5093425;28;20561;-69
2024/01/18 01:39:49;;;;;;;30.55;24.25;;;;;;;5.74;100.00;93796.66;5097355;28;20553;-70
2024/01/18 01:42:15;;;;;;;36.63;28.10;;;;;;;5.68;100.00;93797.31;5094746;28;20073;-70
2024/01/18 01:44:40;;;;;;;17.23;13.63;;;;;;;5.61;100.00;93804.97;5099218;28;20119;-70
2024/01/18 01:47:06;;;;;;;19.65;17.58;;;;;;;5.68;100.00;93805.97;5092096;28;20027;-69
2024/01/18 01:49:31;;;;;;;15.30;11.45;;;;;;;5.65;100.00;93816.75;5086434;28;20043;-69
2024/01/18 01:51:57;;;;;;;8.38;6.68;;;;;;;5.61;100.00;93825.84;5089300;28;20028;-69
2024/01/18 01:54:29;;;;;;;4.88;4.40;;;;;;;5.60;100.00;93824.22;5079786;28;20070;-69
2024/01/18 01:56:55;;;;;;;4.30;3.83;;;;;;;5.59;100.00;93819.97;5082030;28;20025;-70
2024/01/18 01:59:21;;;;;;;6.22;4.10;;;;;;;5.59;100.00;93820.78;5091449;28;20059;-69
2024/01/18 02:01:46;;;;;;;5.95;5.35;;;;;;;5.63;100.00;93823.09;5095296;28;20028;-69
2024/01/18 02:04:13;;;;;;;19.90;17.00;;;;;;;5.62;100.00;93821.44;5072728;28;20023;-69
2024/01/18 02:06:40;;;;;;;20.08;17.00;;;;;;;5.63;100.00;93818.66;5084424;28;20401;-69
2024/01/18 02:09:06;;;;;;;18.27;16.38;;;;;;;5.63;100.00;93826.50;5077765;28;20039;-69
2024/01/18 02:11:32;;;;;;;17.35;14.10;;;;;;;5.61;100.00;93818.00;5084476;28;20055;-69
2024/01/18 02:13:57;;;;;;;9.85;8.85;;;;;;;5.67;100.00;93806.97;5095832;28;20035;-69
2024/01/18 02:16:23;;;;;;;4.28;3.67;;;;;;;5.62;100.00;93803.97;5082167;28;20051;-69
2024/01/18 02:18:49;;;;;;;2.80;2.60;;;;;;;5.61;100.00;93812.78;5088908;28;20085;-69
2024/01/18 02:21:15;;;;;;;8.73;8.02;;;;;;;5.62;100.00;93818.84;5092711;28;20072;-69
2024/01/18 02:23:48;;;;;;;11.77;10.77;;;;;;;5.59;100.00;93817.34;5087876;28;20020;-69
2024/01/18 02:26:14;;;;;;;7.47;6.88;;;;;;;5.57;100.00;93827.97;5090933;28;20025;-69
2024/01/18 02:28:55;;;;;;;5.47;5.03;;;;;;;5.54;100.00;93822.22;5082702;28;20031;-70
2024/01/18 02:31:21;;;;;;;3.83;3.58;;;;;;;5.51;100.00;93838.22;5066347;28;20115;-69
2024/01/18 02:33:47;;;;;;;3.25;2.95;;;;;;;5.51;100.00;93827.78;5080659;28;20070;-69
2024/01/18 02:36:13;;;;;;;4.25;3.85;;;;;;;5.51;100.00;93831.19;5086912;28;20020;-69
2024/01/18 02:38:38;;;;;;;3.50;3.20;;;;;;;5.52;100.00;93832.81;5082796;28;20681;-69
2024/01/18 02:41:04;;;;;;;4.55;3.80;;;;;;;5.55;100.00;93826.47;5087201;28;20035;-69
2024/01/18 02:43:29;;;;;;;3.67;3.38;;;;;;;5.53;100.00;93826.66;5093324;28;20028;-69
2024/01/18 02:45:54;;;;;;;12.80;11.65;;;;;;;5.55;100.00;93829.09;5092199;28;20169;-70
2024/01/18 02:48:20;;;;;;;10.02;9.02;;;;;;;5.55;100.00;93832.53;5093095;28;20019;-69
2024/01/18 02:50:45;;;;;;;8.32;7.53;;;;;;;5.55;100.00;93822.09;5080808;28;20024;-69
2024/01/18 02:53:11;;;;;;;10.48;9.48;;;;;;;5.57;100.00;93824.53;5085379;28;20103;-69
2024/01/18 02:55:36;;;;;;;8.15;7.47;;;;;;;5.58;100.00;93813.94;5082020;28;20048;-69
2024/01/18 02:58:01;;;;;;;6.25;5.65;;;;;;;5.58;100.00;93806.09;5086993;28;20504;-69
2024/01/18 03:00:27;;;;;;;10.57;9.68;;;;;;;5.57;100.00;93814.09;5080442;28;20123;-70
2024/01/18 03:02:52;;;;;;;8.25;7.45;;;;;;;5.59;100.00;93822.56;5087635;28;20115;-69
2024/01/18 03:05:18;;;;;;;8.15;7.35;;;;;;;5.57;100.00;93814.91;5085432;28;20101;-69
2024/01/18 03:07:43;;;;;;;32.72;29.27;;;;;;;5.56;100.00;93813.28;5081645;28;20096;-69
2024/01/18 03:10:08;;;;;;;22.42;19.10;;;;;;;5.56;100.00;93818.50;5078447;28;20061;-70
2024/01/18 03:12:37;;;;;;;21.42;19.17;;;;;;;5.56;100.00;93820.28;5080689;28;20038;-69
2024/01/18 03:15:08;;;;;;;16.23;14.02;;;;;;;5.53;100.00;93823.22;5084988;28;20499;-69
2024/01/18 03:17:33;;;;;;;12.55;10.18;;;;;;;5.48;100.00;93821.06;5094083;28;20016;-69
2024/01/18 03:19:59;;;;;;;9.20;8.30;;;;;;;5.49;100.00;93816.69;5082774;28;20024;-70
2024/01/18 03:22:24;;;;;;;9.15;8.20;;;;;;;5.51;100.00;93815.53;5101969;28;20121;-69
2024/01/18 03:24:50;;;;;;;18.55;16.73;;;;;;;5.52;100.00;93811.13;5098492;28;20392;-69
2024/01/18 03:27:17;;;;;;;50.38;44.80;;;;;;;5.51;100.00;93791.22;5092472;28;20023;-69
2024/01/18 03:29:42;;;;;;;28.38;25.50;;;;;;;5.51;100.00;93788.63;5090306;28;20047;-69
2024/01/18 03:32:08;;;;;;;24.15;21.85;;;;;;;5.49;100.00;93774.91;5090019;28;20435;-69
2024/01/18 03:34:33;;;;;;;23.80;21.40;;;;;;;5.49;100.00;93774.91;5095240;28;20046;-69
2024/01/18 03:36:58;;;;;;;16.10;14.70;;;;;;;5.48;100.00;93775.88;5084010;28;20358;-70
2024/01/18 03:39:24;;;;;;;13.95;12.65;;;;;;;5.49;100.00;93772.31;5089613;28;20027;-69
2024/01/18 03:41:49;;;;;;;17.05;15.43;;;;;;;5.51;100.00;93770.34;5085989;28;20048;-69
2024/01/18 03:44:15;;;;;;;17.48;15.85;;;;;;;5.53;100.00;93771.00;5090663;28;20016;-69
2024/01/18 03:46:40;;;;;;;15.50;13.98;;;;;;;5.56;100.00;93770.69;5091982;28;20020;-70
2024/01/18 03:49:06;;;;;;;16.13;12.85;;;;;;;5.53;100.00;93771.00;5081645;28;20020;-70
2024/01/18 03:51:31;;;;;;;17.23;13.93;;;;;;;5.52;100.00;93769.38;5088382;28;20248;-69
2024/01/18 03:53:56;;;;;;;17.02;14.48;;;;;;;5.52;100.00;93771.97;5093438;28;20028;-69
2024/01/18 03:56:22;;;;;;;15.60;13.60;;;;;;;5.51;100.00;93781.59;5092176;28;20021;-69
2024/01/18 03:58:47;;;;;;;13.10;11.52;;;;;;;5.54;100.00;93765.63;5090289;28;20021;-69
2024/01/18 04:01:13;;;;;;;15.20;11.77;;;;;;;5.54;100.00;93756.97;5091075;28;20062;-69
2024/01/18 04:03:39;;;;;;;12.98;11.30;;;;;;;5.56;100.00;93765.47;5087792;28;20081;-69
2024/01/18 04:06:05;;;;;;;20.38;18.15;;;;;;;5.54;100.00;93767.41;5090577;28;20016;-69
2024/01/18 04:08:30;;;;;;;26.52;22.10;;;;;;;5.56;100.00;93783.72;5089057;28;20020;-69
2024/01/18 04:10:55;;;;;;;16.02;14.32;;;;;;;5.53;100.00;93786.66;5094594;28;20016;-69
2024/01/18 04:13:21;;;;;;;15.18;12.93;;;;;;;5.53;100.00;93787.50;5090557;28;20028;-69
2024/01/18 04:15:46;;;;;;;9.82;7.28;;;;;;;5.66;100.00;93787.06;5086651;28;20111;-69
2024/01/18 04:18:12;;;;;;;10.60;9.45;;;;;;;5.62;100.00;93790.94;5089628;28;20032;-70
2024/01/18 04:20:38;;;;;;;11.15;9.95;;;;;;;5.59;100.00;93784.25;5070869;28;20042;-69
2024/01/18 04:23:03;;;;;;;11.55;10.20;;;;;;;5.58;100.00;93779.16;5095869;28;20542;-69
2024/01/18 04:25:29;;;;;;;12.50;10.93;;;;;;;5.55;100.00;93792.53;5089810;28;20021;-69
2024/01/18 04:27:54;;;;;;;12.98;10.40;;;;;;;5.54;100.00;93802.19;5093284;28;20070;-69
2024/01/18 04:30:20;;;;;;;10.55;9.55;;;;;;;5.55;100.00;93795.16;5087696;28;20455;-69
2024/01/18 04:32:45;;;;;;;14.90;11.45;;;;;;;5.57;100.00;93807.09;5093657;28;20580;-69
2024/01/18 04:35:11;;;;;;;15.75;11.75;;;;;;;5.59;100.00;93822.56;5085550;28;20032;-69
2024/01/18 04:37:36;;;;;;;10.93;9.77;;;;;;;5.67;100.00;93824.41;5081642;28;20027;-69
2024/01/18 04:40:02;;;;;;;8.43;7.63;;;;;;;5.66;100.00;93826.22;5092837;28;20028;-69
2024/01/18 04:42:27;;;;;;;8.27;7.57;;;;;;;5.62;100.00;93837.91;5087966;28;20020;-69
2024/01/18 04:44:53;;;;;;;7.20;6.53;;;;;;;5.66;100.00;93836.66;5073734;28;20028;-69
2024/01/18 04:47:18;;;;;;;8.13;7.53;;;;;;;5.64;100.00;93822.94;5084067;28;20024;-69
2024/01/18 04:49:44;;;;;;;8.32;7.72;;;;;;;5.55;100.00;93831.69;5085805;28;20016;-69
2024/01/18 04:52:11;;;;;;;8.68;7.90;;;;;;;5.48;100.00;93834.13;5093967;28;20449;-69
2024/01/18 04:54:36;;;;;;;8.25;7.65;;;;;;;5.44;100.00;93828.41;5090595;28;20024;-69
2024/01/18 04:57:02;;;;;;;8.90;8.18;;;;;;;5.43;100.00;93826.78;5095275;28;20027;-69
2024/01/18 04:59:27;;;;;;;9.82;8.95;;;;;;;5.43;100.00;93818.94;5095945;28;20174;-69
2024/01/18 05:01:54;;;;;;;9.95;9.05;;;;;;;5.48;100.00;93807.22;5089205;28;20027;-69
2024/01/18 05:04:20;;;;;;;9.60;8.73;;;;;;;5.54;100.00;93812.63;5084774;28;20107;-69
2024/01/18 05:06:45;;;;;;;9.57;8.75;;;;;;;5.49;100.00;93801.81;5093514;28;20178;-69
2024/01/18 05:09:11;;;;;;;10.65;9.82;;;;;;;5.49;100.00;93798.41;5085950;28;20030;-69
2024/01/18 05:11:36;;;;;;;11.13;10.20;;;;;;;5.47;100.00;93797.75;5080674;28;20027;-69
2024/01/18 05:14:01;;;;;;;12.75;11.60;;;;;;;5.42;100.00;93801.66;5098856;28;20027;-69
2024/01/18 05:16:27;;;;;;;12.10;11.00;;;;;;;5.39;100.00;93796.72;5095246;28;20427;-69
2024/01/18 05:18:52;;;;;;;9.30;8.48;;;;;;;5.39;100.00;93801.13;5084610;28;20032;-69
2024/01/18 05:21:18;;;;;;;13.63;12.48;;;;;;;5.36;100.00;93815.31;5087629;28;20015;-69
2024/01/18 05:23:43;;;;;;;18.65;17.15;;;;;;;5.35;100.00;93818.09;5090853;28;20043;-69
2024/01/18 05:26:09;;;;;;;18.30;16.80;;;;;;;5.36;100.00;93807.47;5082224;28;20028;-69
2024/01/18 05:28:35;;;;;;;18.95;17.38;;;;;;;5.39;100.00;93806.34;5096105;28;20469;-69
2024/01/18 05:31:00;;;;;;;16.05;14.65;;;;;;;5.40;100.00;93803.56;5078293;28;20023;-69
2024/01/18 05:33:27;;;;;;;16.15;14.85;;;;;;;5.41;100.00;93817.44;5078718;28;20024;-69
2024/01/18 05:35:52;;;;;;;17.77;16.27;;;;;;;5.40;100.00;93800.16;5078310;28;20039;-69
2024/01/18 05:38:18;;;;;;;15.00;13.75;;;;;;;5.38;100.00;93808.13;5080354;28;20393;-69
2024/01/18 05:40:45;;;;;;;16.23;14.45;;;;;;;5.42;100.00;93803.44;5077739;28;20384;-69
2024/01/18 05:43:10;;;;;;;18.10;16.52;;;;;;;5.44;100.00;93799.69;5096143;28;20031;-69
2024/01/18 05:45:36;;;;;;;17.73;16.25;;;;;;;5.43;100.00;93800.66;5096154;28;20024;-68
2024/01/18 05:48:01;;;;;;;15.68;14.18;;;;;;;5.42;100.00;93799.03;5077656;28;20050;-69
2024/01/18 05:50:26;;;;;;;15.63;14.27;;;;;;;5.44;100.00;93793.66;5094933;28;20055;-69
2024/01/18 05:52:52;;;;;;;15.57;14.38;;;;;;;5.43;100.00;93795.44;5097481;28;20028;-69
2024/01/18 05:55:17;;;;;;;16.65;15.35;;;;;;;5.38;100.00;93795.09;5084387;28;20107;-69
2024/01/18 05:57:43;;;;;;;17.13;15.73;;;;;;;5.38;100.00;93795.09;5086527;28;20081;-69
2024/01/18 06:00:09;;;;;;;16.92;15.63;;;;;;;5.38;100.00;93799.50;5080185;28;20024;-69
2024/01/18 06:02:34;;;;;;;18.10;16.40;;;;;;;5.42;100.00;93803.44;5076275;28;20081;-69
2024/01/18 06:05:00;;;;;;;17.27;15.98;;;;;;;5.37;100.00;93814.31;5092816;28;20032;-69
2024/01/18 06:07:26;;;;;;;18.40;16.60;;;;;;;5.35;100.00;93818.88;5065596;28;20462;-68
2024/01/18 06:09:52;;;;;;;21.73;20.02;;;;;;;5.35;100.00;93831.94;5085184;28;20074;-69
2024/01/18 06:12:17;;;;;;;22.60;20.90;;;;;;;5.37;100.00;93835.22;5092798;28;20067;-69
2024/01/18 06:14:43;;;;;;;19.85;18.25;;;;;;;5.37;100.00;93834.41;5085869;28;20092;-69
2024/01/18 06:17:08;;;;;;;18.30;16.73;;;;;;;5.36;100.00;93828.34;5088420;28;20034;-68
2024/01/18 06:19:33;;;;;;;15.32;14.02;;;;;;;5.39;100.00;93830.66;5092597;28;20020;-68
2024/01/18 06:21:59;;;;;;;13.32;12.30;;;;;;;5.40;100.00;93829.66;5078390;28;20565;-69
2024/01/18 06:24:25;;;;;;;11.48;10.55;;;;;;;5.41;100.00;93828.69;5100088;28;20067;-69
2024/01/18 06:26:51;;;;;;;10.57;9.63;;;;;;;5.39;100.00;93837.66;5082750;28;20032;-69
2024/01/18 06:29:17;;;;;;;16.30;14.95;;;;;;;5.39;100.00;93835.88;5095394;28;20020;-69
2024/01/18 06:31:42;;;;;;;10.60;9.73;;;;;;;5.36;100.00;93841.41;5092622;28;20411;-69
2024/01/18 06:34:08;;;;;;;15.48;14.38;;;;;;;5.39;100.00;93832.44;5082677;28;20028;-69
2024/01/18 06:36:33;;;;;;;15.48;14.10;;;;;;;5.41;100.00;93833.13;5106228;28;20023;-69
2024/01/18 06:38:59;;;;;;;17.08;15.52;;;;;;;5.41;100.00;93830.50;5087637;28;20035;-70
2024/01/18 06:41:26;;;;;;;21.05;19.58;;;;;;;5.42;100.00;93838.19;5087558;28;20034;-69
2024/01/18 06:43:51;;;;;;;16.65;15.45;;;;;;;5.41;100.00;93827.88;5085240;28;20077;-69
2024/01/18 06:46:17;;;;;;;15.82;14.73;;;;;;;5.41;100.00;93830.50;5085938;28;20035;-69
2024/01/18 06:48:45;;;;;;;14.30;13.23;;;;;;;5.44;100.00;93831.00;5080433;28;20044;-69
2024/01/18 06:51:13;;;;;;;16.23;15.02;;;;;;;5.48;100.00;93839.34;5082467;28;20416;-69
2024/01/18 06:53:39;;;;;;;15.18;14.02;;;;;;;5.49;100.00;93848.00;5084918;28;20089;-70
2024/01/18 06:56:10;;;;;;;14.98;13.93;;;;;;;5.51;100.00;93843.44;5089385;28;20042;-69
2024/01/18 06:58:36;;;;;;;17.70;16.25;;;;;;;5.55;100.00;93836.91;5074831;28;20107;-72
2024/01/18 07:01:01;;;;;;;17.67;16.35;;;;;;;5.52;100.00;93838.03;5086050;28;20105;-70
2024/01/18 07:03:30;;;;;;;19.17;17.67;;;;;;;5.53;100.00;93844.09;5098372;28;20055;-70
2024/01/18 07:05:55;;;;;;;16.52;15.32;;;;;;;5.55;100.00;93836.91;5102709;28;20039;-69
2024/01/18 07:08:21;;;;;;;17.33;15.98;;;;;;;5.58;100.00;93836.59;5092253;28;20039;-69
2024/01/18 07:10:48;;;;;;;15.45;14.13;;;;;;;5.58;100.00;93837.44;5079002;28;20055;-69
2024/01/18 07:13:14;;;;;;;15.85;14.75;;;;;;;5.62;100.00;93837.91;5091857;28;20016;-69
2024/01/18 07:15:39;;;;;;;15.52;14.43;;;;;;;5.64;100.00;93837.78;5087493;28;20054;-69
2024/01/18 07:18:05;;;;;;;23.60;21.55;;;;;;;5.66;100.00;93834.03;5063629;28;20020;-71
2024/01/18 07:20:30;;;;;;;20.58;18.95;;;;;;;5.69;100.00;93845.94;5089772;28;20032;-70
2024/01/18 07:22:56;;;;;;;21.23;19.52;;;;;;;5.70;100.00;93835.34;5100872;28;20081;-70
2024/01/18 07:25:21;;;;;;;28.45;25.80;;;;;;;5.69;100.00;93838.94;5084043;28;20050;-70
2024/01/18 07:27:47;;;;;;;35.10;32.13;;;;;;;5.69;100.00;93833.72;5089032;28;20100;-70
2024/01/18 07:30:14;;;;;;;20.65;19.05;;;;;;;5.76;100.00;93833.09;5089119;28;20028;-70
2024/01/18 07:32:40;;;;;;;23.02;21.23;;;;;;;5.71;100.00;93837.00;5094380;28;20377;-70
2024/01/18 07:35:05;;;;;;;16.77;15.50;;;;;;;5.70;100.00;93837.13;5085628;28;20038;-70
2024/01/18 07:37:31;;;;;;;13.73;12.73;;;;;;;5.69;100.00;93840.72;5083828;28;20031;-71
2024/01/18 07:39:56;;;;;;;32.17;29.15;;;;;;;5.71;100.00;93839.59;5072442;28;20024;-70
2024/01/18 07:42:22;;;;;;;30.25;27.38;;;;;;;5.76;100.00;93839.13;5086330;28;20062;-70
2024/01/18 07:44:47;;;;;;;17.77;16.38;;;;;;;5.78;100.00;93841.56;5084026;28;20038;-71
2024/01/18 07:47:13;;;;;;;11.82;10.93;;;;;;;5.79;100.00;93835.38;5078723;28;20026;-71
2024/01/18 07:49:42;;;;;;;14.18;13.05;;;;;;;5.79;100.00;93830.16;5081224;28;20024;-70
2024/01/18 07:52:08;;;;;;;15.77;14.60;;;;;;;5.79;100.00;93835.38;5060047;28;20032;-71
2024/01/18 07:54:34;;;;;;;12.75;11.75;;;;;;;5.80;100.00;93837.00;5090077;28;20054;-71
2024/01/18 07:56:59;;;;;;;18.50;16.88;;;;;;;5.82;100.00;93833.28;5078911;28;20718;-71
2024/01/18 07:59:25;;;;;;;17.13;15.63;;;;;;;5.85;100.00;93834.75;5087281;28;20405;-71
2024/01/18 08:01:50;;;;;;;17.95;16.45;;;;;;;5.88;100.00;93818.78;5081051;28;20111;-71
2024/01/18 08:04:15;;;;;;;17.80;16.35;;;;;;;5.89;100.00;93807.34;5088177;28;20016;-71
2024/01/18 08:06:42;;;;;;;16.13;14.85;;;;;;;5.89;100.00;93815.19;5085720;28;20109;-71
2024/01/18 08:09:11;;;;;;;21.77;20.08;;;;;;;5.92;100.00;93817.47;5092069;28;20023;-71
2024/01/18 08:11:37;;;;;;;18.42;16.83;;;;;;;6.00;100.00;93811.47;5084022;28;20029;-71
2024/01/18 08:14:03;;;;;;;26.00;24.10;;;;;;;6.04;100.00;93809.34;5090426;28;20099;-71
2024/01/18 08:16:28;;;;;;;25.00;22.90;;;;;;;6.03;100.00;93816.38;5112327;28;20023;-71
2024/01/18 08:18:53;;;;;;;24.13;22.15;;;;;;;6.00;100.00;93825.31;5081400;28;20020;-71
2024/01/18 08:21:19;;;;;;;24.20;22.13;;;;;;;6.00;100.00;93821.91;5093596;28;20015;-71
2024/01/18 08:23:44;;;;;;;23.67;21.70;;;;;;;6.01;100.00;93810.50;5088869;28;20116;-71
2024/01/18 08:26:10;;;;;;;21.90;20.10;;;;;;;6.04;100.00;93793.69;5097646;28;20095;-71
2024/01/18 08:28:36;;;;;;;26.77;24.48;;;;;;;6.07;100.00;93803.81;5091931;28;20028;-71
2024/01/18 08:31:01;;;;;;;24.40;22.42;;;;;;;6.07;100.00;93811.63;5095618;28;20749;-71
2024/01/18 08:33:27;;;;;;;28.10;25.35;;;;;;;6.13;100.00;93813.63;5103666;28;20036;-71
2024/01/18 08:35:53;;;;;;;22.70;20.67;;;;;;;6.18;100.00;93813.13;5103008;28;20020;-71
2024/01/18 08:38:20;;;;;;;20.17;18.08;;;;;;;6.19;100.00;93812.97;5096223;28;20020;-71
2024/01/18 08:40:46;;;;;;;22.33;20.20;;;;;;;6.18;100.00;93808.72;5091662;28;20020;-71
2024/01/18 08:43:12;;;;;;;23.95;21.63;;;;;;;6.19;100.00;93818.22;5098320;28;20421;-71
2024/01/18 08:45:41;;;;;;;25.75;23.20;;;;;;;6.23;100.00;93827.34;5088382;28;20128;-71
2024/01/18 08:48:06;;;;;;;24.20;22.00;;;;;;;6.26;100.00;93824.41;5087274;28;20054;-72
2024/01/18 08:50:32;;;;;;;40.20;36.58;;;;;;;6.26;100.00;93834.88;5086222;28;20060;-71
2024/01/18 08:52:57;;;;;;;29.38;26.80;;;;;;;6.32;100.00;93827.38;5110569;28;20026;-71
2024/01/18 08:55:23;;;;;;;28.15;25.65;;;;;;;6.32;100.00;93824.78;5095653;28;20079;-71
2024/01/18 08:57:49;;;;;;;23.35;21.05;;;;;;;6.34;100.00;93814.97;5083253;28;20482;-71
2024/01/18 09:00:17;;;;;;;23.60;21.35;;;;;;;6.34;100.00;93813.16;5093467;28;20016;-71
2024/01/18 09:02:45;;;;;;;24.60;21.52;;;;;;;6.32;100.00;93817.72;5094521;28;20032;-71
2024/01/18 09:05:11;;;;;;;26.80;24.08;;;;;;;6.32;100.00;93824.78;5095235;28;20024;-71
2024/01/18 09:07:36;;;;;;;23.77;21.48;;;;;;;6.35;100.00;93811.38;5089037;28;20028;-71
2024/01/18 09:10:02;;;;;;;23.23;21.13;;;;;;;6.38;100.00;93813.66;5090556;28;20059;-71
2024/01/18 09:12:28;;;;;;;25.60;23.30;;;;;;;6.38;100.00;93821.50;5090841;28;20150;-70
2024/01/18 09:14:54;;;;;;;27.17;24.40;;;;;;;6.41;100.00;93811.53;5090996;28;20151;-71
2024/01/18 09:17:20;;;;;;;24.15;21.90;;;;;;;6.48;100.00;93816.91;5101591;28;20016;-71
2024/01/18 09:19:46;;;;;;;29.45;26.80;;;;;;;6.51;100.00;93813.16;5088267;28;20027;-70
2024/01/18 09:22:11;;;;;;;28.27;25.58;;;;;;;6.52;100.00;93818.25;5102643;28;20082;-70
2024/01/18 09:24:37;;;;;;;27.40;24.65;;;;;;;6.54;100.00;93831.16;5095932;28;20107;-71
2024/01/18 09:27:02;;;;;;;32.05;28.63;;;;;;;6.55;100.00;93832.78;5065635;28;20029;-70
2024/01/18 09:29:28;;;;;;;32.42;29.33;;;;;;;6.55;100.00;93851.91;5083000;28;20027;-70
2024/01/18 09:31:53;;;;;;;35.30;31.77;;;;;;;6.52;100.00;93831.31;5084345;28;20032;-71
2024/01/18 09:34:19;;;;;;;34.67;30.95;;;;;;;6.56;100.00;93840.47;5093158;28;20031;-70
2024/01/18 09:36:44;;;;;;;37.88;34.15;;;;;;;6.58;100.00;93832.44;5093730;28;20016;-70
2024/01/18 09:39:15;;;;;;;37.80;34.03;;;;;;;6.64;100.00;93834.44;5088296;28;20318;-70
2024/01/18 09:41:51;;;;;;;36.33;32.67;;;;;;;6.64;100.00;93836.22;5092101;28;20028;-71
2024/01/18 09:44:23;;;;;;;35.40;31.88;;;;;;;6.66;100.00;93834.25;5093887;28;20024;-70
2024/01/18 09:46:50;;;;;;;33.03;29.92;;;;;;;6.68;100.00;93832.28;5087335;28;20087;-70
2024/01/18 09:49:16;;;;;;;34.55;31.08;;;;;;;6.70;100.00;93833.78;5101163;28;20111;-71
2024/01/18 09:51:43;;;;;;;29.55;26.45;;;;;;;6.74;100.00;93837.69;5098840;28;20031;-71
2024/01/18 09:54:08;;;;;;;50.17;45.28;;;;;;;6.79;100.00;93839.81;5092499;28;20021;-70
2024/01/18 09:56:42;;;;;;;38.90;35.05;;;;;;;6.80;100.00;93836.22;5090801;28;20465;-70
2024/01/18 09:59:10;;;;;;;36.05;32.63;;;;;;;6.81;100.00;93822.16;5089029;28;20019;-71
2024/01/18 10:01:36;;;;;;;43.03;38.92;;;;;;;6.85;100.00;93818.22;5093850;28;20027;-70
2024/01/18 10:04:02;;;;;;;41.45;37.65;;;;;;;6.86;100.00;93830.31;5106786;28;20396;-71
2024/01/18 10:06:28;;;;;;;42.60;38.53;;;;;;;6.87;100.00;93824.09;5099696;28;20024;-70
2024/01/18 10:08:53;;;;;;;38.05;34.53;;;;;;;6.87;100.00;93836.38;5096965;28;20309;-70
2024/01/18 10:11:19;;;;;;;41.40;37.28;;;;;;;6.88;100.00;93838.03;5103370;28;20070;-71
2024/01/18 10:13:52;;;;;;;37.28;33.88;;;;;;;6.92;100.00;93841.09;5093759;28;20020;-70
2024/01/18 10:16:27;;;;;;;36.00;32.80;;;;;;;6.91;100.00;93847.31;5093259;28;20019;-70
2024/01/18 10:18:56;;;;;;;28.23;25.05;;;;;;;6.96;100.00;93868.56;5094012;28;20086;-70
2024/01/18 10:21:23;;;;;;;24.42;22.27;;;;;;;7.03;100.00;93869.56;5085732;28;20130;-70
2024/01/18 10:23:50;;;;;;;34.85;31.60;;;;;;;7.00;100.00;93868.06;5096705;28;20111;-71
2024/01/18 10:26:16;;;;;;;24.70;22.60;;;;;;;7.01;100.00;93853.22;5081451;28;20031;-70
2024/01/18 10:28:43;;;;;;;25.23;23.02;;;;;;;7.09;100.00;93855.00;5094132;28;20056;-71
2024/01/18 10:31:08;;;;;;;26.45;24.17;;;;;;;7.20;100.00;93857.25;5082767;28;20408;-71
2024/01/18 10:33:34;;;;;;;27.50;24.77;;;;;;;7.27;100.00;93852.19;5087279;28;20071;-71
2024/01/18 10:36:00;;;;;;;34.88;31.25;;;;;;;7.36;100.00;93847.75;5075580;28;20084;-71
2024/01/18 10:38:39;;;;;;;23.90;21.60;;;;;;;7.41;100.00;93846.28;5087536;28;20036;-71
2024/01/18 10:41:05;;;;;;;22.95;20.60;;;;;;;7.54;100.00;93845.75;5102156;28;20028;-71
2024/01/18 10:43:31;;;;;;;22.58;20.58;;;;;;;7.65;100.00;93835.88;5085642;28;20036;-71
2024/01/18 10:45:58;;;;;;;22.00;20.05;;;;;;;7.69;100.00;93843.22;5092769;28;20092;-71
2024/01/18 10:48:25;;;;;;;18.75;17.25;;;;;;;7.64;100.00;93842.09;5078054;28;20028;-71
2024/01/18 10:50:53;;;;;;;11.23;10.32;;;;;;;7.57;100.00;93842.78;5091761;28;20023;-71
2024/01/18 10:53:19;;;;;;;8.05;7.22;;;;;;;7.55;100.00;93836.91;5094811;28;20131;-71
2024/01/18 10:55:45;;;;;;;7.00;6.40;;;;;;;7.60;100.00;93839.81;5085187;28;20062;-71
2024/01/18 10:58:10;;;;;;;10.13;9.20;;;;;;;7.63;100.00;93848.31;5079280;28;20115;-71
2024/01/18 11:00:36;;;;;;;8.43;7.68;;;;;;;7.62;100.00;93839.63;5090667;28;20095;-71
2024/01/18 11:03:01;;;;;;;9.40;8.50;;;;;;;7.66;100.00;93837.50;5084393;28;20023;-71
2024/01/18 11:05:27;;;;;;;4.90;4.50;;;;;;;7.69;100.00;93838.00;5096585;28;20114;-71
2024/01/18 11:07:53;;;;;;;3.38;3.08;;;;;;;7.80;100.00;93841.22;5073349;28;20021;-71
2024/01/18 11:10:18;;;;;;;5.75;5.25;;;;;;;7.85;100.00;93842.34;5096767;28;20047;-71
2024/01/18 11:12:49;;;;;;;9.63;6.60;;;;;;;7.94;100.00;93834.44;5081179;28;20075;-71
2024/01/18 11:15:18;;;;;;;10.95;9.98;;;;;;;7.92;100.00;93839.88;5089848;28;20031;-71